createdAt,value
2022-12-22T00:00:20.139Z,33.90
2022-12-22T00:03:32.447Z,33.50
2022-12-22T00:06:19.389Z,33.40
2022-12-22T00:09:06.274Z,37.20
2022-12-22T00:11:52.946Z,34.00
2022-12-22T00:14:39.488Z,38.40
2022-12-22T00:20:20.615Z,39.60
2022-12-22T00:23:07.505Z,30.10
2022-12-22T00:25:54.421Z,29.80
2022-12-22T00:28:40.995Z,30.10
2022-12-22T00:31:28.172Z,31.30
2022-12-22T00:34:15.076Z,34.00
2022-12-22T00:37:02.991Z,29.00
2022-12-22T00:39:49.887Z,29.10
2022-12-22T00:42:36.930Z,32.20
2022-12-22T00:45:24.329Z,34.00
2022-12-22T00:48:11.077Z,37.50
2022-12-22T00:53:44.564Z,39.20
2022-12-22T00:56:31.538Z,46.40
2022-12-22T00:59:19.201Z,43.90
2022-12-22T01:02:06.156Z,36.50
2022-12-22T01:04:52.980Z,33.70
2022-12-22T01:10:32.743Z,35.80
2022-12-22T01:13:19.289Z,43.30
2022-12-22T01:16:06.002Z,42.20
2022-12-22T01:21:39.950Z,55.30
2022-12-22T01:24:35.693Z,47.10
2022-12-22T01:27:23.526Z,45.00
2022-12-22T01:30:10.496Z,38.80
2022-12-22T01:32:57.421Z,34.20
2022-12-22T01:35:49.224Z,32.50
2022-12-22T01:38:35.935Z,35.80
2022-12-22T01:44:17.789Z,34.40
2022-12-22T01:49:59.722Z,30.50
2022-12-22T01:52:53.596Z,29.40
2022-12-22T01:55:43.550Z,34.30
2022-12-22T01:58:45.242Z,33.90
2022-12-22T02:01:32.556Z,34.10
2022-12-22T02:04:20.495Z,32.30
2022-12-22T02:07:11.698Z,31.70
2022-12-22T02:10:37.748Z,37.90
2022-12-22T02:13:52.857Z,41.00
2022-12-22T02:17:18.203Z,34.00
2022-12-22T02:20:38.882Z,27.80
2022-12-22T02:24:10.269Z,29.70
2022-12-22T02:27:05.115Z,28.30
2022-12-22T02:30:05.914Z,33.40
2022-12-22T02:32:56.642Z,29.40
2022-12-22T02:35:43.449Z,31.40
2022-12-22T02:38:40.346Z,30.30
2022-12-22T02:41:38.911Z,29.60
2022-12-22T02:45:10.825Z,32.00
2022-12-22T02:48:22.567Z,36.10
2022-12-22T02:51:23.316Z,35.20
2022-12-22T02:54:16.232Z,35.10
2022-12-22T02:57:03.799Z,33.40
2022-12-22T02:59:50.465Z,33.80
2022-12-22T03:05:24.769Z,32.50
2022-12-22T03:08:11.316Z,40.00
2022-12-22T03:10:58.239Z,47.10
2022-12-22T03:13:45.294Z,39.90
2022-12-22T03:16:32.270Z,34.20
2022-12-22T03:19:19.096Z,37.60
2022-12-22T03:22:06.029Z,42.60
2022-12-22T03:24:52.901Z,34.50
2022-12-22T03:27:21.044Z,34.70
2022-12-22T03:29:49.183Z,38.10
2022-12-22T03:32:18.806Z,42.40
2022-12-22T03:34:46.939Z,36.40
2022-12-22T03:37:15.112Z,35.70
2022-12-22T03:39:43.379Z,34.10
2022-12-22T03:42:31.068Z,35.50
2022-12-22T03:45:17.935Z,36.60
2022-12-22T03:47:46.050Z,35.10
2022-12-22T03:50:14.319Z,34.20
2022-12-22T03:52:42.501Z,36.10
2022-12-22T03:55:10.609Z,37.20
2022-12-22T03:57:38.812Z,38.80
2022-12-22T04:00:08.643Z,40.10
2022-12-22T04:02:40.093Z,41.70
2022-12-22T04:05:09.240Z,49.00
2022-12-22T04:07:37.394Z,64.70
2022-12-22T04:10:25.811Z,54.00
2022-12-22T04:12:54.623Z,46.40
2022-12-22T04:15:32.436Z,48.10
2022-12-22T04:18:00.619Z,48.00
2022-12-22T04:20:29.226Z,49.20
2022-12-22T04:22:57.769Z,49.60
2022-12-22T04:25:27.130Z,45.10
2022-12-22T04:27:55.432Z,46.50
2022-12-22T04:30:23.655Z,48.40
2022-12-22T04:32:51.856Z,47.20
2022-12-22T04:35:20.041Z,50.20
2022-12-22T04:37:49.643Z,46.20
2022-12-22T04:40:18.671Z,44.90
2022-12-22T04:42:47.090Z,44.70
2022-12-22T04:45:15.684Z,44.70
2022-12-22T04:47:43.875Z,46.20
2022-12-22T04:50:12.060Z,46.20
2022-12-22T04:52:40.277Z,48.10
2022-12-22T04:55:09.547Z,54.90
2022-12-22T04:57:40.824Z,47.40
2022-12-22T05:00:10.891Z,43.20
2022-12-22T05:02:39.053Z,42.20
2022-12-22T05:05:08.731Z,45.40
2022-12-22T05:07:37.592Z,45.50
2022-12-22T05:10:06.931Z,47.40
2022-12-22T05:12:53.520Z,47.50
2022-12-22T05:15:33.956Z,43.50
2022-12-22T05:18:02.951Z,45.80
2022-12-22T05:20:32.347Z,47.00
2022-12-22T05:23:00.494Z,48.70
2022-12-22T05:25:34.715Z,48.20
2022-12-22T05:28:04.176Z,48.00
2022-12-22T05:30:32.432Z,46.00
2022-12-22T05:33:00.725Z,44.50
2022-12-22T05:35:28.964Z,46.00
2022-12-22T05:37:57.133Z,43.60
2022-12-22T05:40:26.771Z,54.60
2022-12-22T05:42:55.636Z,57.90
2022-12-22T05:45:24.043Z,49.00
2022-12-22T05:47:52.933Z,45.70
2022-12-22T05:50:25.211Z,42.50
2022-12-22T05:53:00.347Z,43.40
2022-12-22T05:55:28.667Z,42.20
2022-12-22T05:57:56.947Z,45.30
2022-12-22T06:00:25.362Z,44.50
2022-12-22T06:02:53.638Z,43.00
2022-12-22T06:05:22.115Z,46.70
2022-12-22T06:07:50.387Z,45.90
2022-12-22T06:10:18.654Z,40.80
2022-12-22T06:12:46.851Z,40.60
2022-12-22T06:15:16.149Z,45.60
2022-12-22T06:17:45.440Z,43.80
2022-12-22T06:20:14.396Z,47.50
2022-12-22T06:22:42.597Z,45.90
2022-12-22T06:25:17.553Z,42.70
2022-12-22T06:27:47.769Z,46.00
2022-12-22T06:30:16.768Z,51.80
2022-12-22T06:32:45.089Z,58.40
2022-12-22T06:35:13.628Z,52.20
2022-12-22T06:37:41.903Z,44.90
2022-12-22T06:40:10.752Z,44.60
2022-12-22T06:43:20.315Z,48.80
2022-12-22T06:45:48.540Z,49.70
2022-12-22T06:48:16.806Z,46.10
2022-12-22T06:50:45.328Z,50.20
2022-12-22T06:53:13.729Z,46.80
2022-12-22T06:55:41.845Z,51.40
2022-12-22T06:58:09.998Z,47.90
2022-12-22T07:00:38.647Z,47.90
2022-12-22T07:03:07.135Z,54.40
2022-12-22T07:05:35.543Z,47.70
2022-12-22T07:08:08.472Z,48.00
2022-12-22T07:10:56.347Z,49.70
2022-12-22T07:13:31.979Z,46.20
2022-12-22T07:16:02.525Z,49.70
2022-12-22T07:18:33.603Z,55.50
2022-12-22T07:21:04.805Z,44.50
2022-12-22T07:23:33.500Z,43.50
2022-12-22T07:26:02.201Z,47.00
2022-12-22T07:28:36.810Z,45.60
2022-12-22T07:31:05.896Z,45.50
2022-12-22T07:33:34.180Z,43.10
2022-12-22T07:36:18.689Z,46.80
2022-12-22T07:38:50.249Z,45.60
2022-12-22T07:41:38.931Z,47.80
2022-12-22T07:44:08.226Z,48.50
2022-12-22T07:46:40.539Z,44.10
2022-12-22T07:49:29.738Z,45.80
2022-12-22T07:51:59.314Z,44.90
2022-12-22T07:54:28.631Z,45.60
2022-12-22T07:56:56.904Z,44.40
2022-12-22T07:59:25.018Z,45.40
2022-12-22T08:01:53.541Z,43.40
2022-12-22T08:04:22.682Z,47.70
2022-12-22T08:06:50.996Z,47.90
2022-12-22T08:09:21.694Z,42.10
2022-12-22T08:11:50.358Z,44.80
2022-12-22T08:14:18.731Z,46.90
2022-12-22T08:16:47.090Z,44.10
2022-12-22T08:19:15.629Z,49.40
2022-12-22T08:21:50.329Z,47.70
2022-12-22T08:24:22.021Z,44.20
2022-12-22T08:26:55.791Z,45.40
2022-12-22T08:29:38.738Z,43.30
2022-12-22T08:32:07.302Z,48.90
2022-12-22T08:34:35.652Z,48.00
2022-12-22T08:37:08.016Z,45.50
2022-12-22T08:39:39.289Z,44.40
2022-12-22T08:42:11.862Z,48.00
2022-12-22T08:44:40.066Z,45.40
2022-12-22T08:47:14.855Z,46.30
2022-12-22T08:49:44.812Z,46.10
2022-12-22T08:52:18.404Z,46.10
2022-12-22T08:54:47.546Z,45.20
2022-12-22T08:57:15.751Z,46.80
2022-12-22T08:59:44.050Z,46.30
2022-12-22T09:02:12.277Z,43.70
2022-12-22T09:04:40.441Z,44.70
2022-12-22T09:07:08.895Z,45.80
2022-12-22T09:09:37.220Z,47.00
2022-12-22T09:12:06.026Z,45.10
2022-12-22T09:14:34.289Z,48.30
2022-12-22T09:17:02.582Z,47.50
2022-12-22T09:19:30.891Z,45.30
2022-12-22T09:21:58.977Z,43.20
2022-12-22T09:24:27.298Z,40.50
2022-12-22T09:26:55.570Z,42.70
2022-12-22T09:29:23.917Z,45.60
2022-12-22T09:31:52.171Z,39.90
2022-12-22T09:34:20.405Z,42.70
2022-12-22T09:36:48.681Z,38.30
2022-12-22T09:39:17.172Z,42.20
2022-12-22T09:41:53.107Z,43.70
2022-12-22T09:44:42.342Z,43.40
2022-12-22T09:47:38.947Z,44.40
2022-12-22T09:50:16.125Z,45.60
2022-12-22T09:52:50.322Z,48.40
2022-12-22T09:55:48.532Z,48.30
2022-12-22T09:58:26.227Z,49.60
2022-12-22T10:01:26.550Z,47.00
2022-12-22T10:04:12.964Z,45.90
2022-12-22T10:06:59.206Z,49.50
2022-12-22T10:12:25.101Z,45.90
2022-12-22T10:14:55.094Z,48.50
2022-12-22T10:17:26.628Z,50.00
2022-12-22T10:20:07.109Z,50.00
2022-12-22T10:22:47.601Z,44.10
2022-12-22T10:25:52.398Z,47.00
2022-12-22T10:28:27.235Z,46.60
2022-12-22T10:31:21.309Z,46.50
2022-12-22T10:33:54.851Z,47.10
2022-12-22T10:36:31.082Z,44.90
2022-12-22T10:39:11.132Z,45.90
2022-12-22T10:41:47.919Z,41.30
2022-12-22T10:44:15.920Z,44.10
2022-12-22T10:46:47.105Z,39.50
2022-12-22T10:49:20.781Z,43.40
2022-12-22T10:51:56.046Z,46.10
2022-12-22T10:54:38.516Z,40.60
2022-12-22T10:57:16.642Z,42.90
2022-12-22T10:59:56.884Z,42.20
2022-12-22T11:02:38.487Z,41.20
2022-12-22T11:05:12.139Z,38.40
2022-12-22T11:07:43.402Z,41.70
2022-12-22T11:10:14.863Z,41.40
2022-12-22T11:12:51.708Z,39.60
2022-12-22T11:18:34.028Z,40.00
2022-12-22T11:21:24.883Z,40.30
2022-12-22T11:24:21.817Z,40.50
2022-12-22T11:27:25.935Z,37.40
2022-12-22T11:30:20.806Z,37.50
2022-12-22T11:33:23.784Z,40.60
2022-12-22T11:36:01.236Z,34.50
2022-12-22T11:38:46.972Z,37.90
2022-12-22T11:41:33.793Z,34.00
2022-12-22T11:44:45.360Z,39.60
2022-12-22T11:47:58.233Z,31.80
2022-12-22T11:51:01.999Z,34.90
2022-12-22T11:53:55.640Z,29.80
2022-12-22T11:56:29.342Z,33.60
2022-12-22T11:59:18.864Z,33.30
2022-12-22T12:01:59.045Z,34.00
2022-12-22T12:04:39.436Z,39.10
2022-12-22T12:07:34.576Z,36.60
2022-12-22T12:10:22.347Z,33.90
2022-12-22T12:13:27.412Z,35.00
2022-12-22T12:16:37.437Z,34.00
2022-12-22T12:19:51.660Z,36.70
2022-12-22T12:22:25.873Z,37.70
2022-12-22T12:25:25.608Z,36.30
2022-12-22T12:28:05.200Z,35.30
2022-12-22T12:30:53.893Z,36.70
2022-12-22T12:34:01.127Z,34.90
2022-12-22T12:36:43.427Z,37.40
2022-12-22T12:39:31.471Z,35.90
2022-12-22T12:42:43.602Z,39.30
2022-12-22T12:45:41.295Z,31.60
2022-12-22T12:48:24.641Z,34.20
2022-12-22T12:50:59.533Z,41.20
2022-12-22T12:53:30.124Z,38.40
2022-12-22T12:56:09.415Z,36.40
2022-12-22T12:58:37.907Z,38.50
2022-12-22T13:01:12.157Z,34.50
2022-12-22T13:06:49.818Z,29.90
2022-12-22T13:09:49.845Z,35.30
2022-12-22T13:12:39.793Z,35.90
2022-12-22T13:15:30.135Z,32.70
2022-12-22T13:18:00.603Z,34.30
2022-12-22T13:20:37.493Z,33.30
2022-12-22T13:23:14.783Z,35.20
2022-12-22T13:26:00.103Z,34.30
2022-12-22T13:28:29.733Z,33.00
2022-12-22T13:31:06.577Z,33.80
2022-12-22T13:36:18.666Z,34.10
2022-12-22T13:46:37.565Z,36.40
2022-12-22T13:49:13.693Z,36.30
2022-12-22T13:51:48.900Z,36.50
2022-12-22T13:54:39.419Z,36.40
2022-12-22T13:57:22.282Z,38.20
2022-12-22T13:59:52.149Z,37.40
2022-12-22T14:02:22.581Z,36.50
2022-12-22T14:05:09.035Z,35.90
2022-12-22T14:07:37.267Z,32.40
2022-12-22T14:10:07.462Z,34.30
2022-12-22T14:12:44.794Z,35.50
2022-12-22T14:15:19.435Z,34.80
2022-12-22T14:17:52.658Z,36.90
2022-12-22T14:20:38.131Z,34.20
2022-12-22T14:23:12.657Z,32.60
2022-12-22T14:25:44.196Z,35.50
2022-12-22T14:28:39.385Z,37.30
2022-12-22T14:31:08.347Z,34.10
2022-12-22T14:33:36.711Z,30.00
2022-12-22T14:36:20.806Z,33.40
2022-12-22T14:38:54.884Z,32.60
2022-12-22T14:41:43.049Z,38.10
2022-12-22T14:44:28.405Z,34.50
2022-12-22T14:47:17.922Z,34.60
2022-12-22T14:50:26.674Z,37.40
2022-12-22T14:52:58.845Z,34.60
2022-12-22T14:55:39.797Z,35.40
2022-12-22T14:58:16.269Z,33.70
2022-12-22T15:01:09.360Z,40.80
2022-12-22T15:03:38.982Z,36.10
2022-12-22T15:06:29.487Z,36.30
2022-12-22T15:09:07.338Z,35.50
2022-12-22T15:11:39.031Z,35.40
2022-12-22T15:14:15.531Z,35.60
2022-12-22T15:16:45.549Z,36.40
2022-12-22T15:19:22.513Z,37.60
2022-12-22T15:24:20.047Z,36.90
2022-12-22T15:26:48.324Z,39.40
2022-12-22T15:29:16.639Z,40.30
2022-12-22T15:31:45.035Z,42.40
2022-12-22T15:34:30.965Z,39.70
2022-12-22T15:36:59.149Z,38.60
2022-12-22T15:39:30.933Z,39.60
2022-12-22T15:42:05.928Z,39.60
2022-12-22T15:44:38.667Z,39.10
2022-12-22T15:47:10.680Z,40.60
2022-12-22T15:49:40.316Z,39.50
2022-12-22T15:52:13.323Z,39.30
2022-12-22T15:54:41.826Z,30.80
2022-12-22T15:57:14.231Z,42.80
2022-12-22T15:59:45.935Z,42.40
2022-12-22T16:02:16.693Z,42.70
2022-12-22T16:04:46.842Z,43.00
2022-12-22T16:07:16.831Z,37.10
2022-12-22T16:09:49.285Z,42.50
2022-12-22T16:12:20.999Z,44.60
2022-12-22T16:14:56.431Z,44.70
2022-12-22T16:17:28.752Z,45.90
2022-12-22T16:19:58.927Z,44.10
2022-12-22T16:22:46.490Z,43.30
2022-12-22T16:25:43.221Z,38.00
2022-12-22T16:28:41.719Z,40.40
2022-12-22T16:32:03.335Z,39.50
2022-12-22T16:34:43.985Z,40.10
2022-12-22T16:37:17.301Z,40.80
2022-12-22T16:39:52.838Z,39.70
2022-12-22T16:45:23.308Z,37.90
2022-12-22T16:47:53.972Z,42.50
2022-12-22T16:50:32.437Z,45.70
2022-12-22T16:53:05.359Z,48.10
2022-12-22T16:55:35.947Z,48.20
2022-12-22T16:58:12.988Z,49.90
2022-12-22T17:00:45.220Z,46.60
2022-12-22T17:03:24.391Z,51.20
2022-12-22T17:05:56.309Z,52.40
2022-12-22T17:08:28.018Z,52.60
2022-12-22T17:11:10.388Z,51.60
2022-12-22T17:13:39.690Z,47.30
2022-12-22T17:16:19.036Z,47.30
2022-12-22T17:18:48.185Z,47.00
2022-12-22T17:21:19.187Z,47.10
2022-12-22T17:23:52.019Z,46.30
2022-12-22T17:26:32.024Z,50.40
2022-12-22T17:29:00.996Z,48.00
2022-12-22T17:31:29.881Z,46.80
2022-12-22T17:33:58.285Z,47.80
2022-12-22T17:36:35.876Z,53.50
2022-12-22T17:39:05.140Z,48.20
2022-12-22T17:41:33.869Z,47.70
2022-12-22T17:44:03.421Z,47.10
2022-12-22T17:46:37.541Z,46.20
2022-12-22T17:49:05.689Z,47.80
2022-12-22T17:51:34.155Z,55.90
2022-12-22T17:54:02.574Z,48.00
2022-12-22T17:56:31.333Z,47.50
2022-12-22T17:58:59.449Z,47.10
2022-12-22T18:01:32.501Z,51.20
2022-12-22T18:04:01.041Z,49.80
2022-12-22T18:06:34.561Z,50.80
2022-12-22T18:09:26.812Z,50.70
2022-12-22T18:11:59.274Z,49.30
2022-12-22T18:14:32.604Z,48.70
2022-12-22T18:17:35.513Z,48.80
2022-12-22T18:20:33.485Z,52.40
2022-12-22T18:23:32.235Z,50.30
2022-12-22T18:26:01.883Z,48.40
2022-12-22T18:28:32.303Z,44.60
2022-12-22T18:31:00.557Z,46.90
2022-12-22T18:33:28.707Z,45.20
2022-12-22T18:35:59.212Z,45.50
2022-12-22T18:38:33.814Z,44.10
2022-12-22T18:41:02.370Z,42.40
2022-12-22T18:43:30.632Z,42.40
2022-12-22T18:45:58.864Z,41.50
2022-12-22T18:48:28.262Z,44.00
2022-12-22T18:50:56.684Z,42.70
2022-12-22T18:53:29.581Z,46.00
2022-12-22T18:55:58.742Z,43.90
2022-12-22T18:58:29.170Z,45.60
2022-12-22T19:01:03.852Z,45.20
2022-12-22T19:03:34.021Z,45.90
2022-12-22T19:06:04.814Z,42.60
2022-12-22T19:08:35.462Z,45.40
2022-12-22T19:11:08.379Z,43.10
2022-12-22T19:13:45.535Z,45.20
2022-12-22T19:16:19.788Z,44.40
2022-12-22T19:18:51.221Z,41.80
2022-12-22T19:21:21.048Z,41.00
2022-12-22T19:23:50.560Z,39.80
2022-12-22T19:26:27.015Z,44.40
2022-12-22T19:29:01.751Z,43.00
2022-12-22T19:31:35.252Z,47.40
2022-12-22T19:34:10.052Z,44.80
2022-12-22T19:36:41.713Z,44.30
2022-12-22T19:39:10.189Z,39.60
2022-12-22T19:42:03.496Z,39.60
2022-12-22T19:44:34.805Z,47.60
2022-12-22T19:47:03.822Z,48.90
2022-12-22T19:49:32.018Z,48.30
2022-12-22T19:52:00.817Z,52.10
2022-12-22T19:54:32.473Z,46.60
2022-12-22T19:57:06.864Z,48.90
2022-12-22T19:59:47.732Z,45.80
2022-12-22T20:02:22.559Z,46.80
2022-12-22T20:04:53.253Z,44.00
2022-12-22T20:07:25.599Z,43.80
2022-12-22T20:09:53.945Z,44.30
2022-12-22T20:12:26.471Z,45.00
2022-12-22T20:14:55.315Z,44.10
2022-12-22T20:17:23.714Z,44.90
2022-12-22T20:19:51.828Z,44.20
2022-12-22T20:22:22.712Z,42.90
2022-12-22T20:24:51.513Z,39.80
2022-12-22T20:27:31.657Z,42.40
2022-12-22T20:30:00.149Z,43.20
2022-12-22T20:32:29.007Z,42.80
2022-12-22T20:34:57.284Z,41.00
2022-12-22T20:37:25.699Z,42.80
2022-12-22T20:39:53.990Z,43.60
2022-12-22T20:42:24.698Z,43.50
2022-12-22T20:45:03.442Z,38.80
2022-12-22T20:47:34.313Z,48.20
2022-12-22T20:50:02.542Z,43.50
2022-12-22T20:52:30.732Z,41.20
2022-12-22T20:54:59.023Z,43.40
2022-12-22T20:57:27.896Z,42.00
2022-12-22T20:59:56.930Z,43.90
2022-12-22T21:02:29.409Z,43.20
2022-12-22T21:04:58.102Z,44.20
2022-12-22T21:07:27.474Z,41.60
2022-12-22T21:09:55.615Z,43.90
2022-12-22T21:12:25.043Z,41.80
2022-12-22T21:14:53.404Z,40.40
2022-12-22T21:17:24.620Z,41.90
2022-12-22T21:19:53.008Z,42.40
2022-12-22T21:22:21.428Z,42.20
2022-12-22T21:24:49.831Z,42.40
2022-12-22T21:27:20.540Z,40.70
2022-12-22T21:29:48.737Z,41.80
2022-12-22T21:32:16.981Z,37.90
2022-12-22T21:34:45.086Z,40.40
2022-12-22T21:37:18.970Z,41.40
2022-12-22T21:39:48.528Z,39.00
2022-12-22T21:42:20.010Z,38.20
2022-12-22T21:44:48.281Z,40.70
2022-12-22T21:47:20.862Z,37.50
2022-12-22T21:49:49.056Z,38.00
2022-12-22T21:52:17.227Z,37.70
2022-12-22T21:54:45.489Z,38.40
2022-12-22T21:57:18.400Z,35.90
2022-12-22T21:59:47.148Z,36.70
2022-12-22T22:02:18.271Z,37.70
2022-12-22T22:04:54.114Z,41.10
2022-12-22T22:07:23.368Z,41.20
2022-12-22T22:09:51.620Z,40.70
2022-12-22T22:12:37.029Z,39.60
2022-12-22T22:15:07.999Z,38.80
2022-12-22T22:17:36.204Z,44.90
2022-12-22T22:20:06.752Z,49.30
2022-12-22T22:22:35.158Z,42.20
2022-12-22T22:25:04.142Z,42.20
2022-12-22T22:27:32.335Z,40.60
2022-12-22T22:30:00.507Z,42.50
2022-12-22T22:32:29.145Z,40.60
2022-12-22T22:34:57.311Z,37.80
2022-12-22T22:37:25.628Z,39.00
2022-12-22T22:39:53.748Z,38.40
2022-12-22T22:42:21.982Z,39.30
2022-12-22T22:44:50.158Z,40.20
2022-12-22T22:47:18.360Z,31.50
2022-12-22T22:49:46.659Z,38.50
2022-12-22T22:52:18.893Z,30.90
2022-12-22T22:54:47.726Z,33.30
2022-12-22T22:57:18.319Z,39.80
2022-12-22T22:59:48.257Z,35.90
2022-12-22T23:02:20.099Z,37.10
2022-12-22T23:04:50.995Z,42.20
2022-12-22T23:07:19.393Z,34.40
2022-12-22T23:09:47.566Z,37.60
2022-12-22T23:12:15.935Z,35.60
2022-12-22T23:14:44.096Z,30.20
2022-12-22T23:17:12.494Z,33.90
2022-12-22T23:19:42.026Z,32.40
2022-12-22T23:22:10.341Z,36.20
2022-12-22T23:24:38.904Z,36.50
2022-12-22T23:27:07.400Z,33.90
2022-12-22T23:29:37.053Z,33.00
2022-12-22T23:32:06.232Z,33.80
2022-12-22T23:34:35.995Z,32.40
2022-12-22T23:37:04.715Z,37.40
2022-12-22T23:39:37.473Z,34.90
2022-12-22T23:42:06.056Z,32.80
2022-12-22T23:44:36.460Z,32.80
2022-12-22T23:47:05.025Z,33.70
2022-12-22T23:49:33.340Z,35.70
2022-12-22T23:52:01.643Z,32.50
2022-12-22T23:54:30.464Z,31.60
2022-12-22T23:56:59.416Z,35.20
2022-12-22T23:59:29.943Z,34.20
